sensor_id;sensor_type;location;lat;lon;timestamp;P1;durP1;ratioP1;P2;durP2;ratioP2
54557;SDS011;40452;50.080;20.040;2022-08-25T00:00:10;10.20;;;4.22;;
54557;SDS011;40452;50.080;20.040;2022-08-25T00:02:36;12.38;;;4.78;;
54557;SDS011;40452;50.080;20.040;2022-08-25T00:05:03;11.35;;;4.50;;
54557;SDS011;40452;50.080;20.040;2022-08-25T00:07:29;11.05;;;4.60;;
54557;SDS011;40452;50.080;20.040;2022-08-25T00:09:55;16.38;;;4.53;;
54557;SDS011;40452;50.080;20.040;2022-08-25T00:12:20;10.88;;;4.38;;
54557;SDS011;40452;50.080;20.040;2022-08-25T00:14:46;12.75;;;4.28;;
54557;SDS011;40452;50.080;20.040;2022-08-25T00:17:11;12.75;;;4.78;;
54557;SDS011;40452;50.080;20.040;2022-08-25T00:19:37;9.68;;;4.63;;
54557;SDS011;40452;50.080;20.040;2022-08-25T00:22:03;15.43;;;4.22;;
54557;SDS011;40452;50.080;20.040;2022-08-25T00:24:30;13.65;;;4.50;;
54557;SDS011;40452;50.080;20.040;2022-08-25T00:26:56;13.32;;;4.85;;
54557;SDS011;40452;50.080;20.040;2022-08-25T00:29:23;11.35;;;4.15;;
54557;SDS011;40452;50.080;20.040;2022-08-25T00:31:50;8.73;;;4.22;;
54557;SDS011;40452;50.080;20.040;2022-08-25T03:21:36;9.93;;;3.47;;
54557;SDS011;40452;50.080;20.040;2022-08-25T03:24:03;9.90;;;3.58;;
54557;SDS011;40452;50.080;20.040;2022-08-25T03:26:29;10.45;;;3.40;;
54557;SDS011;40452;50.080;20.040;2022-08-25T03:29:13;13.93;;;3.58;;
54557;SDS011;40452;50.080;20.040;2022-08-25T03:31:39;13.25;;;3.80;;
54557;SDS011;40452;50.080;20.040;2022-08-25T03:34:08;10.07;;;3.40;;
54557;SDS011;40452;50.080;20.040;2022-08-25T03:36:34;15.25;;;3.58;;
54557;SDS011;40452;50.080;20.040;2022-08-25T03:39:00;10.10;;;3.28;;
54557;SDS011;40452;50.080;20.040;2022-08-25T03:41:27;10.95;;;3.78;;
54557;SDS011;40452;50.080;20.040;2022-08-25T03:43:54;15.35;;;4.00;;
54557;SDS011;40452;50.080;20.040;2022-08-25T03:46:24;10.88;;;3.65;;
54557;SDS011;40452;50.080;20.040;2022-08-25T03:48:51;11.27;;;3.58;;
54557;SDS011;40452;50.080;20.040;2022-08-25T03:51:18;13.77;;;3.38;;
54557;SDS011;40452;50.080;20.040;2022-08-25T03:53:45;17.45;;;4.10;;
54557;SDS011;40452;50.080;20.040;2022-08-25T03:56:10;11.55;;;3.38;;
54557;SDS011;40452;50.080;20.040;2022-08-25T03:58:36;11.82;;;3.28;;
54557;SDS011;40452;50.080;20.040;2022-08-25T04:01:01;8.57;;;3.17;;
54557;SDS011;40452;50.080;20.040;2022-08-25T04:03:27;13.88;;;3.50;;
54557;SDS011;40452;50.080;20.040;2022-08-25T04:05:52;12.57;;;3.30;;
54557;SDS011;40452;50.080;20.040;2022-08-25T04:08:18;14.23;;;3.63;;
54557;SDS011;40452;50.080;20.040;2022-08-25T04:10:44;8.20;;;3.30;;
54557;SDS011;40452;50.080;20.040;2022-08-25T04:13:09;9.65;;;3.33;;
54557;SDS011;40452;50.080;20.040;2022-08-25T04:15:36;8.05;;;3.70;;
54557;SDS011;40452;50.080;20.040;2022-08-25T04:18:06;9.77;;;3.17;;
54557;SDS011;40452;50.080;20.040;2022-08-25T04:20:32;9.38;;;3.40;;
54557;SDS011;40452;50.080;20.040;2022-08-25T04:22:57;11.90;;;3.53;;
54557;SDS011;40452;50.080;20.040;2022-08-25T04:25:25;10.60;;;3.50;;
54557;SDS011;40452;50.080;20.040;2022-08-25T04:27:51;11.73;;;3.25;;
54557;SDS011;40452;50.080;20.040;2022-08-25T04:30:17;14.25;;;3.50;;
54557;SDS011;40452;50.080;20.040;2022-08-25T04:32:43;11.70;;;3.05;;
54557;SDS011;40452;50.080;20.040;2022-08-25T04:35:08;10.38;;;3.25;;
54557;SDS011;40452;50.080;20.040;2022-08-25T04:37:34;9.55;;;3.00;;
54557;SDS011;40452;50.080;20.040;2022-08-25T04:40:00;8.48;;;3.28;;
54557;SDS011;40452;50.080;20.040;2022-08-25T04:42:26;7.78;;;2.95;;
54557;SDS011;40452;50.080;20.040;2022-08-25T04:44:51;10.00;;;2.70;;
54557;SDS011;40452;50.080;20.040;2022-08-25T04:47:18;11.35;;;2.90;;
54557;SDS011;40452;50.080;20.040;2022-08-25T04:49:43;8.35;;;3.08;;
54557;SDS011;40452;50.080;20.040;2022-08-25T04:52:09;10.07;;;3.08;;
54557;SDS011;40452;50.080;20.040;2022-08-25T04:54:34;6.60;;;2.70;;
54557;SDS011;40452;50.080;20.040;2022-08-25T04:57:00;10.80;;;3.22;;
54557;SDS011;40452;50.080;20.040;2022-08-25T04:59:26;9.10;;;3.05;;
54557;SDS011;40452;50.080;20.040;2022-08-25T05:01:52;8.75;;;3.60;;
54557;SDS011;40452;50.080;20.040;2022-08-25T05:04:19;8.05;;;3.47;;
54557;SDS011;40452;50.080;20.040;2022-08-25T05:06:45;11.85;;;3.58;;
54557;SDS011;40452;50.080;20.040;2022-08-25T05:09:10;10.07;;;3.35;;
54557;SDS011;40452;50.080;20.040;2022-08-25T05:11:36;13.73;;;3.65;;
54557;SDS011;40452;50.080;20.040;2022-08-25T05:14:02;11.38;;;3.88;;
54557;SDS011;40452;50.080;20.040;2022-08-25T05:16:28;16.10;;;3.53;;
54557;SDS011;40452;50.080;20.040;2022-08-25T05:18:54;14.20;;;3.85;;
54557;SDS011;40452;50.080;20.040;2022-08-25T05:21:22;18.52;;;4.70;;
54557;SDS011;40452;50.080;20.040;2022-08-25T05:23:49;14.82;;;4.03;;
54557;SDS011;40452;50.080;20.040;2022-08-25T05:26:20;13.85;;;4.15;;
54557;SDS011;40452;50.080;20.040;2022-08-25T05:28:47;19.58;;;4.65;;
54557;SDS011;40452;50.080;20.040;2022-08-25T05:31:14;19.55;;;4.75;;
54557;SDS011;40452;50.080;20.040;2022-08-25T05:33:40;17.20;;;4.68;;
54557;SDS011;40452;50.080;20.040;2022-08-25T05:36:07;15.73;;;4.47;;
54557;SDS011;40452;50.080;20.040;2022-08-25T05:38:33;20.52;;;4.63;;
54557;SDS011;40452;50.080;20.040;2022-08-25T05:41:04;17.83;;;4.43;;
54557;SDS011;40452;50.080;20.040;2022-08-25T05:43:34;18.08;;;4.57;;
54557;SDS011;40452;50.080;20.040;2022-08-25T05:46:01;23.15;;;4.95;;
54557;SDS011;40452;50.080;20.040;2022-08-25T05:48:26;20.85;;;4.43;;
54557;SDS011;40452;50.080;20.040;2022-08-25T05:50:53;18.35;;;4.20;;
54557;SDS011;40452;50.080;20.040;2022-08-25T13:13:42;20.70;;;6.38;;
54557;SDS011;40452;50.080;20.040;2022-08-25T13:16:17;32.13;;;7.47;;
54557;SDS011;40452;50.080;20.040;2022-08-25T13:18:47;37.42;;;7.22;;
54557;SDS011;40452;50.080;20.040;2022-08-25T13:21:20;29.48;;;7.07;;
54557;SDS011;40452;50.080;20.040;2022-08-25T13:23:52;30.40;;;7.43;;
54557;SDS011;40452;50.080;20.040;2022-08-25T13:26:32;29.15;;;7.15;;
54557;SDS011;40452;50.080;20.040;2022-08-25T13:29:24;29.08;;;7.72;;
54557;SDS011;40452;50.080;20.040;2022-08-25T13:31:54;28.83;;;7.90;;
54557;SDS011;40452;50.080;20.040;2022-08-25T13:34:21;34.80;;;7.28;;
54557;SDS011;40452;50.080;20.040;2022-08-25T13:36:50;25.60;;;8.57;;
54557;SDS011;40452;50.080;20.040;2022-08-25T13:39:35;31.65;;;7.40;;
54557;SDS011;40452;50.080;20.040;2022-08-25T13:42:03;26.05;;;6.90;;
54557;SDS011;40452;50.080;20.040;2022-08-25T13:44:33;55.63;;;17.25;;
54557;SDS011;40452;50.080;20.040;2022-08-25T13:47:30;48.28;;;14.25;;
54557;SDS011;40452;50.080;20.040;2022-08-25T13:53:04;37.38;;;10.02;;
54557;SDS011;40452;50.080;20.040;2022-08-25T13:55:38;36.20;;;9.02;;
54557;SDS011;40452;50.080;20.040;2022-08-25T13:58:21;36.03;;;8.40;;
54557;SDS011;40452;50.080;20.040;2022-08-25T14:03:46;34.88;;;9.10;;
54557;SDS011;40452;50.080;20.040;2022-08-25T14:08:42;33.63;;;9.32;;
54557;SDS011;40452;50.080;20.040;2022-08-25T14:14:02;34.33;;;9.40;;
54557;SDS011;40452;50.080;20.040;2022-08-25T14:16:33;32.58;;;8.20;;
54557;SDS011;40452;50.080;20.040;2022-08-25T14:19:21;22.88;;;7.40;;
54557;SDS011;40452;50.080;20.040;2022-08-25T14:21:49;30.42;;;7.60;;
54557;SDS011;40452;50.080;20.040;2022-08-25T14:24:17;33.22;;;7.55;;
54557;SDS011;40452;50.080;20.040;2022-08-25T14:26:45;31.70;;;7.38;;
54557;SDS011;40452;50.080;20.040;2022-08-25T14:29:11;28.70;;;7.10;;
54557;SDS011;40452;50.080;20.040;2022-08-25T14:31:39;32.58;;;7.95;;
54557;SDS011;40452;50.080;20.040;2022-08-25T14:34:14;23.63;;;7.25;;
54557;SDS011;40452;50.080;20.040;2022-08-25T14:36:42;27.75;;;7.18;;
54557;SDS011;40452;50.080;20.040;2022-08-25T14:39:08;26.35;;;7.53;;
54557;SDS011;40452;50.080;20.040;2022-08-25T14:41:35;29.35;;;6.63;;
54557;SDS011;40452;50.080;20.040;2022-08-25T14:44:04;25.92;;;6.90;;
54557;SDS011;40452;50.080;20.040;2022-08-25T14:46:32;23.58;;;6.85;;
54557;SDS011;40452;50.080;20.040;2022-08-25T14:49:01;26.08;;;7.45;;
54557;SDS011;40452;50.080;20.040;2022-08-25T14:51:30;20.13;;;6.60;;
54557;SDS011;40452;50.080;20.040;2022-08-25T14:53:58;21.65;;;6.47;;
54557;SDS011;40452;50.080;20.040;2022-08-25T14:56:26;27.52;;;6.68;;
54557;SDS011;40452;50.080;20.040;2022-08-25T14:58:52;26.05;;;6.40;;
54557;SDS011;40452;50.080;20.040;2022-08-25T15:01:19;26.73;;;6.75;;
54557;SDS011;40452;50.080;20.040;2022-08-25T15:03:47;30.85;;;7.00;;
54557;SDS011;40452;50.080;20.040;2022-08-25T15:06:15;22.50;;;6.40;;
54557;SDS011;40452;50.080;20.040;2022-08-25T15:08:41;20.17;;;6.40;;
54557;SDS011;40452;50.080;20.040;2022-08-25T15:11:26;22.67;;;6.00;;
54557;SDS011;40452;50.080;20.040;2022-08-25T15:13:52;29.17;;;5.90;;
54557;SDS011;40452;50.080;20.040;2022-08-25T15:16:22;25.90;;;6.07;;
54557;SDS011;40452;50.080;20.040;2022-08-25T15:18:50;27.80;;;6.45;;
54557;SDS011;40452;50.080;20.040;2022-08-25T15:21:16;20.98;;;6.60;;
54557;SDS011;40452;50.080;20.040;2022-08-25T15:23:42;30.08;;;6.10;;
54557;SDS011;40452;50.080;20.040;2022-08-25T15:26:09;35.17;;;6.78;;
54557;SDS011;40452;50.080;20.040;2022-08-25T15:28:38;27.63;;;6.85;;
54557;SDS011;40452;50.080;20.040;2022-08-25T15:31:11;32.72;;;6.70;;
54557;SDS011;40452;50.080;20.040;2022-08-25T15:33:37;27.73;;;6.55;;
54557;SDS011;40452;50.080;20.040;2022-08-25T15:36:04;22.58;;;6.47;;
54557;SDS011;40452;50.080;20.040;2022-08-25T15:38:37;25.92;;;6.63;;
54557;SDS011;40452;50.080;20.040;2022-08-25T15:41:03;24.50;;;6.63;;
54557;SDS011;40452;50.080;20.040;2022-08-25T15:43:29;28.90;;;6.60;;
54557;SDS011;40452;50.080;20.040;2022-08-25T15:45:55;25.88;;;6.80;;
54557;SDS011;40452;50.080;20.040;2022-08-25T15:48:21;21.67;;;6.28;;
54557;SDS011;40452;50.080;20.040;2022-08-25T15:50:47;18.38;;;6.38;;
54557;SDS011;40452;50.080;20.040;2022-08-25T15:53:19;26.08;;;6.32;;
54557;SDS011;40452;50.080;20.040;2022-08-25T15:55:45;34.35;;;6.40;;
54557;SDS011;40452;50.080;20.040;2022-08-25T15:58:10;24.33;;;7.35;;
54557;SDS011;40452;50.080;20.040;2022-08-25T16:00:36;22.83;;;6.63;;
54557;SDS011;40452;50.080;20.040;2022-08-25T16:03:01;21.58;;;6.32;;
54557;SDS011;40452;50.080;20.040;2022-08-25T16:05:27;21.58;;;6.15;;
54557;SDS011;40452;50.080;20.040;2022-08-25T16:07:53;24.05;;;6.70;;
54557;SDS011;40452;50.080;20.040;2022-08-25T16:10:18;20.92;;;6.25;;
54557;SDS011;40452;50.080;20.040;2022-08-25T16:12:44;32.75;;;6.25;;
54557;SDS011;40452;50.080;20.040;2022-08-25T16:15:10;35.40;;;7.00;;
54557;SDS011;40452;50.080;20.040;2022-08-25T16:17:36;22.90;;;7.07;;
54557;SDS011;40452;50.080;20.040;2022-08-25T16:20:02;26.13;;;6.85;;
54557;SDS011;40452;50.080;20.040;2022-08-25T16:22:28;20.17;;;6.30;;
54557;SDS011;40452;50.080;20.040;2022-08-25T16:24:54;27.48;;;7.03;;
54557;SDS011;40452;50.080;20.040;2022-08-25T16:27:19;22.38;;;6.68;;
54557;SDS011;40452;50.080;20.040;2022-08-25T16:29:45;24.85;;;6.35;;
54557;SDS011;40452;50.080;20.040;2022-08-25T16:32:11;31.80;;;6.47;;
54557;SDS011;40452;50.080;20.040;2022-08-25T16:34:38;25.73;;;6.47;;
54557;SDS011;40452;50.080;20.040;2022-08-25T16:37:04;23.25;;;6.63;;
54557;SDS011;40452;50.080;20.040;2022-08-25T16:39:30;27.88;;;6.68;;
54557;SDS011;40452;50.080;20.040;2022-08-25T16:41:55;26.45;;;7.03;;
54557;SDS011;40452;50.080;20.040;2022-08-25T16:44:21;26.98;;;6.82;;
54557;SDS011;40452;50.080;20.040;2022-08-25T16:46:48;27.48;;;7.35;;
54557;SDS011;40452;50.080;20.040;2022-08-25T16:49:17;30.85;;;6.88;;
54557;SDS011;40452;50.080;20.040;2022-08-25T16:51:43;24.65;;;7.18;;
54557;SDS011;40452;50.080;20.040;2022-08-25T16:54:09;21.15;;;7.10;;
54557;SDS011;40452;50.080;20.040;2022-08-25T16:56:54;20.73;;;6.45;;
54557;SDS011;40452;50.080;20.040;2022-08-25T16:59:21;28.52;;;6.57;;
54557;SDS011;40452;50.080;20.040;2022-08-25T17:01:48;31.02;;;6.95;;
54557;SDS011;40452;50.080;20.040;2022-08-25T17:04:13;26.40;;;6.60;;
54557;SDS011;40452;50.080;20.040;2022-08-25T17:06:41;29.60;;;7.03;;
54557;SDS011;40452;50.080;20.040;2022-08-25T17:09:08;24.40;;;6.50;;
54557;SDS011;40452;50.080;20.040;2022-08-25T17:11:36;25.98;;;6.32;;
54557;SDS011;40452;50.080;20.040;2022-08-25T17:14:09;23.77;;;7.00;;
54557;SDS011;40452;50.080;20.040;2022-08-25T17:16:35;31.05;;;6.70;;
54557;SDS011;40452;50.080;20.040;2022-08-25T17:19:01;31.55;;;7.70;;
54557;SDS011;40452;50.080;20.040;2022-08-25T17:21:31;20.05;;;6.68;;
54557;SDS011;40452;50.080;20.040;2022-08-25T17:23:59;35.30;;;7.13;;
54557;SDS011;40452;50.080;20.040;2022-08-25T17:26:26;27.42;;;6.95;;
54557;SDS011;40452;50.080;20.040;2022-08-25T17:28:52;19.90;;;6.72;;
54557;SDS011;40452;50.080;20.040;2022-08-25T17:31:18;20.10;;;6.45;;
54557;SDS011;40452;50.080;20.040;2022-08-25T17:33:44;27.20;;;6.05;;
54557;SDS011;40452;50.080;20.040;2022-08-25T17:36:11;32.08;;;7.70;;
54557;SDS011;40452;50.080;20.040;2022-08-25T17:38:37;30.65;;;11.13;;
54557;SDS011;40452;50.080;20.040;2022-08-25T17:41:05;34.53;;;10.48;;
54557;SDS011;40452;50.080;20.040;2022-08-25T17:43:32;22.88;;;9.00;;
54557;SDS011;40452;50.080;20.040;2022-08-25T17:46:03;35.60;;;9.30;;
54557;SDS011;40452;50.080;20.040;2022-08-25T17:48:29;32.10;;;9.43;;
54557;SDS011;40452;50.080;20.040;2022-08-25T17:50:56;32.85;;;9.30;;
54557;SDS011;40452;50.080;20.040;2022-08-25T17:53:23;26.77;;;8.70;;
54557;SDS011;40452;50.080;20.040;2022-08-25T17:55:55;30.80;;;9.25;;
54557;SDS011;40452;50.080;20.040;2022-08-25T17:58:22;26.58;;;9.35;;
54557;SDS011;40452;50.080;20.040;2022-08-25T18:00:48;27.30;;;9.73;;
54557;SDS011;40452;50.080;20.040;2022-08-25T18:03:13;22.17;;;9.30;;
54557;SDS011;40452;50.080;20.040;2022-08-25T18:05:39;29.23;;;9.10;;
54557;SDS011;40452;50.080;20.040;2022-08-25T18:08:05;35.03;;;9.43;;
54557;SDS011;40452;50.080;20.040;2022-08-25T18:10:31;21.65;;;8.25;;
54557;SDS011;40452;50.080;20.040;2022-08-25T18:12:57;24.75;;;9.20;;
54557;SDS011;40452;50.080;20.040;2022-08-25T18:15:25;25.17;;;8.60;;
54557;SDS011;40452;50.080;20.040;2022-08-25T18:17:52;26.98;;;7.97;;
54557;SDS011;40452;50.080;20.040;2022-08-25T18:20:20;32.65;;;9.40;;
54557;SDS011;40452;50.080;20.040;2022-08-25T18:22:47;29.98;;;8.77;;
54557;SDS011;40452;50.080;20.040;2022-08-25T18:25:14;29.13;;;9.13;;
54557;SDS011;40452;50.080;20.040;2022-08-25T18:27:40;26.35;;;8.88;;
54557;SDS011;40452;50.080;20.040;2022-08-25T18:30:06;30.20;;;11.05;;
54557;SDS011;40452;50.080;20.040;2022-08-25T18:32:33;26.42;;;10.70;;
54557;SDS011;40452;50.080;20.040;2022-08-25T18:34:58;29.75;;;9.07;;
54557;SDS011;40452;50.080;20.040;2022-08-25T18:37:24;25.35;;;8.55;;
54557;SDS011;40452;50.080;20.040;2022-08-25T18:40:09;33.70;;;9.18;;
54557;SDS011;40452;50.080;20.040;2022-08-25T18:42:51;25.15;;;8.70;;
54557;SDS011;40452;50.080;20.040;2022-08-25T18:45:19;29.17;;;8.65;;
54557;SDS011;40452;50.080;20.040;2022-08-25T18:47:46;25.55;;;8.48;;
54557;SDS011;40452;50.080;20.040;2022-08-25T18:50:13;26.02;;;8.75;;
54557;SDS011;40452;50.080;20.040;2022-08-25T18:52:39;25.42;;;8.93;;
54557;SDS011;40452;50.080;20.040;2022-08-25T18:55:05;21.00;;;7.43;;
54557;SDS011;40452;50.080;20.040;2022-08-25T18:57:31;25.35;;;8.15;;
54557;SDS011;40452;50.080;20.040;2022-08-25T18:59:56;22.65;;;8.35;;
54557;SDS011;40452;50.080;20.040;2022-08-25T19:02:22;32.53;;;8.98;;
54557;SDS011;40452;50.080;20.040;2022-08-25T19:04:47;22.58;;;8.20;;
54557;SDS011;40452;50.080;20.040;2022-08-25T19:07:16;19.70;;;7.88;;
54557;SDS011;40452;50.080;20.040;2022-08-25T19:09:42;27.20;;;7.85;;
54557;SDS011;40452;50.080;20.040;2022-08-25T19:12:07;26.15;;;8.15;;
54557;SDS011;40452;50.080;20.040;2022-08-25T19:14:33;20.73;;;8.02;;
54557;SDS011;40452;50.080;20.040;2022-08-25T19:16:58;20.33;;;8.18;;
54557;SDS011;40452;50.080;20.040;2022-08-25T19:19:24;25.45;;;8.40;;
54557;SDS011;40452;50.080;20.040;2022-08-25T19:21:50;25.02;;;8.07;;
54557;SDS011;40452;50.080;20.040;2022-08-25T19:24:15;24.25;;;8.32;;
54557;SDS011;40452;50.080;20.040;2022-08-25T19:26:41;23.52;;;8.75;;
54557;SDS011;40452;50.080;20.040;2022-08-25T19:29:09;24.23;;;8.88;;
54557;SDS011;40452;50.080;20.040;2022-08-25T19:31:38;25.67;;;8.07;;
54557;SDS011;40452;50.080;20.040;2022-08-25T19:34:05;27.00;;;8.70;;
54557;SDS011;40452;50.080;20.040;2022-08-25T19:36:35;23.35;;;8.45;;
54557;SDS011;40452;50.080;20.040;2022-08-25T19:39:03;16.40;;;8.52;;
54557;SDS011;40452;50.080;20.040;2022-08-25T19:41:30;23.80;;;8.05;;
54557;SDS011;40452;50.080;20.040;2022-08-25T19:43:57;25.63;;;8.20;;
54557;SDS011;40452;50.080;20.040;2022-08-25T19:46:24;22.45;;;8.10;;
54557;SDS011;40452;50.080;20.040;2022-08-25T19:48:50;26.50;;;9.48;;
54557;SDS011;40452;50.080;20.040;2022-08-25T19:51:16;25.27;;;8.13;;
54557;SDS011;40452;50.080;20.040;2022-08-25T19:53:41;20.85;;;9.13;;
54557;SDS011;40452;50.080;20.040;2022-08-25T19:56:07;21.45;;;8.57;;
54557;SDS011;40452;50.080;20.040;2022-08-25T19:58:34;16.73;;;7.50;;
54557;SDS011;40452;50.080;20.040;2022-08-25T20:01:00;23.85;;;8.57;;
54557;SDS011;40452;50.080;20.040;2022-08-25T20:03:25;22.38;;;8.13;;
54557;SDS011;40452;50.080;20.040;2022-08-25T20:05:51;18.80;;;8.57;;
54557;SDS011;40452;50.080;20.040;2022-08-25T20:08:16;23.65;;;8.27;;
54557;SDS011;40452;50.080;20.040;2022-08-25T20:10:42;27.92;;;7.85;;
54557;SDS011;40452;50.080;20.040;2022-08-25T20:13:09;17.83;;;7.53;;
54557;SDS011;40452;50.080;20.040;2022-08-25T20:15:34;18.75;;;7.53;;
54557;SDS011;40452;50.080;20.040;2022-08-25T20:18:00;17.83;;;7.55;;
54557;SDS011;40452;50.080;20.040;2022-08-25T20:20:26;34.05;;;7.85;;
54557;SDS011;40452;50.080;20.040;2022-08-25T20:22:52;21.27;;;8.50;;
54557;SDS011;40452;50.080;20.040;2022-08-25T20:25:22;18.63;;;8.23;;
54557;SDS011;40452;50.080;20.040;2022-08-25T20:27:50;19.38;;;8.82;;
54557;SDS011;40452;50.080;20.040;2022-08-25T20:32:46;22.23;;;7.88;;
54557;SDS011;40452;50.080;20.040;2022-08-25T20:35:12;22.42;;;7.85;;
54557;SDS011;40452;50.080;20.040;2022-08-25T20:37:38;17.88;;;7.75;;
54557;SDS011;40452;50.080;20.040;2022-08-25T20:40:05;20.75;;;7.45;;
54557;SDS011;40452;50.080;20.040;2022-08-25T20:42:32;24.65;;;7.97;;
54557;SDS011;40452;50.080;20.040;2022-08-25T20:44:58;20.52;;;7.50;;
54557;SDS011;40452;50.080;20.040;2022-08-25T20:47:23;17.27;;;7.93;;
54557;SDS011;40452;50.080;20.040;2022-08-25T20:49:49;16.15;;;7.90;;
54557;SDS011;40452;50.080;20.040;2022-08-25T20:52:15;18.02;;;7.28;;
54557;SDS011;40452;50.080;20.040;2022-08-25T20:54:41;24.40;;;8.32;;
